sensor_id;sensor_type;location;lat;lon;timestamp;pressure;altitude;pressure_sealevel;temperature;humidity
68179;BME280;69812;42.632;23.440;2023-07-31T18:15:22;94779.34;;;20.14;75.75
68179;BME280;69812;42.632;23.440;2023-07-31T18:17:52;94780.91;;;19.82;76.17
68179;BME280;69812;42.632;23.440;2023-07-31T18:20:18;94769.06;;;19.66;77.36
68179;BME280;69812;42.632;23.440;2023-07-31T18:22:46;94777.22;;;19.43;77.69
68179;BME280;69812;42.632;23.440;2023-07-31T18:25:14;94784.78;;;19.24;77.70
68179;BME280;69812;42.632;23.440;2023-07-31T18:27:48;94778.97;;;19.16;77.97
68179;BME280;69812;42.632;23.440;2023-07-31T18:30:14;94773.06;;;18.94;78.83
68179;BME280;69812;42.632;23.440;2023-07-31T18:32:41;94780.00;;;18.80;79.80
68179;BME280;69812;42.632;23.440;2023-07-31T18:35:10;94777.88;;;18.62;80.42
68179;BME280;69812;42.632;23.440;2023-07-31T18:37:37;94778.66;;;18.62;81.94
68179;BME280;69812;42.632;23.440;2023-07-31T18:40:06;94802.41;;;18.81;82.45
68179;BME280;69812;42.632;23.440;2023-07-31T18:42:31;94805.13;;;18.73;81.34
68179;BME280;69812;42.632;23.440;2023-07-31T18:44:57;94801.56;;;18.74;81.02
68179;BME280;69812;42.632;23.440;2023-07-31T18:47:22;94794.91;;;18.71;80.54
68179;BME280;69812;42.632;23.440;2023-07-31T18:49:48;94810.31;;;18.73;79.94
68179;BME280;69812;42.632;23.440;2023-07-31T18:52:13;94800.69;;;18.66;79.69
68179;BME280;69812;42.632;23.440;2023-07-31T18:54:38;94801.63;;;18.52;79.09
68179;BME280;69812;42.632;23.440;2023-07-31T18:57:07;94796.94;;;18.41;78.62
68179;BME280;69812;42.632;23.440;2023-07-31T18:59:37;94798.06;;;18.32;79.31
68179;BME280;69812;42.632;23.440;2023-07-31T19:02:06;94802.56;;;18.16;79.54
68179;BME280;69812;42.632;23.440;2023-07-31T19:04:33;94808.50;;;18.10;79.16
68179;BME280;69812;42.632;23.440;2023-07-31T19:06:59;94803.06;;;18.05;79.46
68179;BME280;69812;42.632;23.440;2023-07-31T19:09:36;94812.78;;;17.96;80.15
68179;BME280;69812;42.632;23.440;2023-07-31T19:12:04;94810.25;;;18.03;80.90
68179;BME280;69812;42.632;23.440;2023-07-31T19:14:40;94815.63;;;18.01;81.16
68179;BME280;69812;42.632;23.440;2023-07-31T19:17:07;94822.44;;;18.02;80.83
68179;BME280;69812;42.632;23.440;2023-07-31T19:19:37;94827.06;;;18.07;81.29
68179;BME280;69812;42.632;23.440;2023-07-31T19:22:05;94825.81;;;18.24;81.10
68179;BME280;69812;42.632;23.440;2023-07-31T19:24:30;94832.50;;;18.40;79.18
68179;BME280;69812;42.632;23.440;2023-07-31T19:26:56;94835.44;;;18.59;77.86
68179;BME280;69812;42.632;23.440;2023-07-31T19:29:21;94828.31;;;18.67;77.03
68179;BME280;69812;42.632;23.440;2023-07-31T19:31:49;94835.09;;;18.68;77.38
68179;BME280;69812;42.632;23.440;2023-07-31T19:34:20;94831.47;;;18.63;76.76
68179;BME280;69812;42.632;23.440;2023-07-31T19:36:48;94830.28;;;18.65;75.35
68179;BME280;69812;42.632;23.440;2023-07-31T19:39:14;94826.69;;;18.66;73.64
68179;BME280;69812;42.632;23.440;2023-07-31T19:41:39;94817.09;;;18.67;73.27
68179;BME280;69812;42.632;23.440;2023-07-31T19:44:07;94830.94;;;18.74;72.73
68179;BME280;69812;42.632;23.440;2023-07-31T19:46:35;94829.94;;;18.75;71.41
68179;BME280;69812;42.632;23.440;2023-07-31T19:49:02;94822.53;;;18.72;71.30
68179;BME280;69812;42.632;23.440;2023-07-31T19:51:29;94831.63;;;18.83;71.34
68179;BME280;69812;42.632;23.440;2023-07-31T19:53:54;94829.03;;;18.83;71.36
68179;BME280;69812;42.632;23.440;2023-07-31T19:56:22;94827.03;;;18.85;71.50
68179;BME280;69812;42.632;23.440;2023-07-31T19:58:48;94824.25;;;18.93;70.73
68179;BME280;69812;42.632;23.440;2023-07-31T20:01:13;94827.88;;;18.92;71.15
68179;BME280;69812;42.632;23.440;2023-07-31T20:03:39;94827.72;;;19.00;69.67
68179;BME280;69812;42.632;23.440;2023-07-31T20:06:06;94829.31;;;19.01;69.12
68179;BME280;69812;42.632;23.440;2023-07-31T20:08:32;94834.91;;;18.98;69.72
68179;BME280;69812;42.632;23.440;2023-07-31T20:10:59;94835.25;;;18.95;69.72
68179;BME280;69812;42.632;23.440;2023-07-31T20:13:27;94831.66;;;18.90;68.75
68179;BME280;69812;42.632;23.440;2023-07-31T20:15:56;94831.00;;;18.81;68.98
68179;BME280;69812;42.632;23.440;2023-07-31T20:18:25;94836.06;;;18.89;67.91
68179;BME280;69812;42.632;23.440;2023-07-31T20:20:50;94831.19;;;18.79;67.68
68179;BME280;69812;42.632;23.440;2023-07-31T20:23:31;94825.91;;;18.73;67.95
68179;BME280;69812;42.632;23.440;2023-07-31T20:26:02;94830.69;;;18.69;67.66
68179;BME280;69812;42.632;23.440;2023-07-31T20:28:28;94833.50;;;18.67;68.17
68179;BME280;69812;42.632;23.440;2023-07-31T20:31:02;94826.41;;;18.55;67.66
68179;BME280;69812;42.632;23.440;2023-07-31T20:33:28;94837.84;;;18.60;67.75
68179;BME280;69812;42.632;23.440;2023-07-31T20:35:53;94838.31;;;18.71;67.30
68179;BME280;69812;42.632;23.440;2023-07-31T20:38:21;94844.06;;;18.66;67.40
68179;BME280;69812;42.632;23.440;2023-07-31T20:40:51;94835.09;;;18.68;67.45
68179;BME280;69812;42.632;23.440;2023-07-31T20:43:17;94845.06;;;18.93;66.90
68179;BME280;69812;42.632;23.440;2023-07-31T20:45:44;94825.13;;;18.72;66.98
68179;BME280;69812;42.632;23.440;2023-07-31T20:48:15;94842.44;;;18.93;66.82
68179;BME280;69812;42.632;23.440;2023-07-31T20:50:40;94840.94;;;19.05;66.78
68179;BME280;69812;42.632;23.440;2023-07-31T20:53:08;94843.72;;;19.04;66.87
68179;BME280;69812;42.632;23.440;2023-07-31T20:55:40;94838.66;;;18.89;66.90
68179;BME280;69812;42.632;23.440;2023-07-31T20:58:09;94839.16;;;18.78;67.11
68179;BME280;69812;42.632;23.440;2023-07-31T21:00:35;94846.59;;;18.81;67.74
68179;BME280;69812;42.632;23.440;2023-07-31T21:03:03;94859.03;;;18.85;67.51
68179;BME280;69812;42.632;23.440;2023-07-31T21:05:29;94833.69;;;18.94;66.56
68179;BME280;69812;42.632;23.440;2023-07-31T21:07:56;94846.88;;;18.99;66.19
68179;BME280;69812;42.632;23.440;2023-07-31T21:10:24;94848.88;;;18.97;66.69
68179;BME280;69812;42.632;23.440;2023-07-31T21:12:50;94855.47;;;18.93;66.75
68179;BME280;69812;42.632;23.440;2023-07-31T21:15:19;94860.53;;;19.08;66.82
68179;BME280;69812;42.632;23.440;2023-07-31T21:17:47;94849.28;;;18.94;66.98
68179;BME280;69812;42.632;23.440;2023-07-31T21:20:12;94856.16;;;19.08;66.61
68179;BME280;69812;42.632;23.440;2023-07-31T21:22:38;94853.75;;;19.07;66.10
68179;BME280;69812;42.632;23.440;2023-07-31T21:25:07;94863.97;;;19.08;66.58
68179;BME280;69812;42.632;23.440;2023-07-31T21:27:34;94856.13;;;19.02;66.79
68179;BME280;69812;42.632;23.440;2023-07-31T21:30:00;94850.97;;;19.08;66.27
68179;BME280;69812;42.632;23.440;2023-07-31T21:32:28;94862.84;;;18.90;66.97
68179;BME280;69812;42.632;23.440;2023-07-31T21:34:58;94855.25;;;18.88;66.93
68179;BME280;69812;42.632;23.440;2023-07-31T21:37:24;94868.16;;;19.09;66.45
68179;BME280;69812;42.632;23.440;2023-07-31T21:39:52;94869.25;;;18.87;67.42
68179;BME280;69812;42.632;23.440;2023-07-31T21:42:20;94853.41;;;18.82;67.81
68179;BME280;69812;42.632;23.440;2023-07-31T21:44:48;94865.78;;;18.80;67.99
68179;BME280;69812;42.632;23.440;2023-07-31T21:47:13;94857.69;;;18.68;68.01
68179;BME280;69812;42.632;23.440;2023-07-31T21:49:39;94858.75;;;18.74;68.17
68179;BME280;69812;42.632;23.440;2023-07-31T21:52:09;94857.63;;;18.83;67.04
68179;BME280;69812;42.632;23.440;2023-07-31T21:54:35;94854.66;;;18.64;68.21
68179;BME280;69812;42.632;23.440;2023-07-31T21:57:02;94850.59;;;18.55;68.60
68179;BME280;69812;42.632;23.440;2023-07-31T21:59:28;94853.94;;;18.49;68.76
68179;BME280;69812;42.632;23.440;2023-07-31T22:01:56;94853.81;;;18.29;69.58
68179;BME280;69812;42.632;23.440;2023-07-31T22:04:27;94855.00;;;18.26;70.19
68179;BME280;69812;42.632;23.440;2023-07-31T22:06:57;94853.03;;;18.07;70.62
68179;BME280;69812;42.632;23.440;2023-07-31T22:09:25;94859.06;;;17.93;71.92
68179;BME280;69812;42.632;23.440;2023-07-31T22:11:50;94853.19;;;18.05;72.49
68179;BME280;69812;42.632;23.440;2023-07-31T22:14:16;94864.66;;;18.11;72.04
68179;BME280;69812;42.632;23.440;2023-07-31T22:16:41;94862.06;;;17.90;72.48
68179;BME280;69812;42.632;23.440;2023-07-31T22:21:45;94861.44;;;17.73;73.77
68179;BME280;69812;42.632;23.440;2023-07-31T22:24:22;94871.53;;;17.61;74.70
68179;BME280;69812;42.632;23.440;2023-07-31T22:27:03;94865.50;;;17.60;75.13
68179;BME280;69812;42.632;23.440;2023-07-31T22:29:43;94865.66;;;17.37;76.34
68179;BME280;69812;42.632;23.440;2023-07-31T22:32:10;94857.25;;;17.35;77.37
68179;BME280;69812;42.632;23.440;2023-07-31T22:37:14;94854.78;;;16.97;78.89
68179;BME280;69812;42.632;23.440;2023-07-31T22:39:39;94847.38;;;16.94;79.65
68179;BME280;69812;42.632;23.440;2023-07-31T22:42:07;94861.19;;;16.87;79.47
68179;BME280;69812;42.632;23.440;2023-07-31T22:44:47;94858.06;;;16.76;79.70
68179;BME280;69812;42.632;23.440;2023-07-31T22:47:15;94844.72;;;16.64;79.93
68179;BME280;69812;42.632;23.440;2023-07-31T22:49:45;94853.66;;;16.62;79.87
68179;BME280;69812;42.632;23.440;2023-07-31T22:52:21;94858.75;;;16.55;80.44
68179;BME280;69812;42.632;23.440;2023-07-31T22:54:46;94855.53;;;16.53;80.78
68179;BME280;69812;42.632;23.440;2023-07-31T22:57:14;94855.25;;;16.48;81.23
68179;BME280;69812;42.632;23.440;2023-07-31T22:59:40;94850.34;;;16.53;81.38
68179;BME280;69812;42.632;23.440;2023-07-31T23:02:08;94858.28;;;16.52;81.63
68179;BME280;69812;42.632;23.440;2023-07-31T23:04:37;94854.00;;;16.44;82.07
68179;BME280;69812;42.632;23.440;2023-07-31T23:07:05;94830.50;;;16.46;82.67
68179;BME280;69812;42.632;23.440;2023-07-31T23:09:33;94830.59;;;16.52;82.82
68179;BME280;69812;42.632;23.440;2023-07-31T23:12:26;94833.91;;;16.46;83.18
68179;BME280;69812;42.632;23.440;2023-07-31T23:14:54;94823.78;;;16.36;83.22
68179;BME280;69812;42.632;23.440;2023-07-31T23:17:21;94829.78;;;16.37;83.11
68179;BME280;69812;42.632;23.440;2023-07-31T23:19:54;94831.09;;;16.33;83.34
68179;BME280;69812;42.632;23.440;2023-07-31T23:22:24;94836.28;;;16.33;83.45
68179;BME280;69812;42.632;23.440;2023-07-31T23:27:49;94829.19;;;16.12;83.52
68179;BME280;69812;42.632;23.440;2023-07-31T23:30:15;94833.91;;;16.08;83.51
68179;BME280;69812;42.632;23.440;2023-07-31T23:32:51;94832.13;;;16.09;83.45
68179;BME280;69812;42.632;23.440;2023-07-31T23:35:18;94840.13;;;15.99;83.81
68179;BME280;69812;42.632;23.440;2023-07-31T23:37:46;94835.47;;;15.94;83.77
68179;BME280;69812;42.632;23.440;2023-07-31T23:40:16;94828.25;;;15.90;83.79
68179;BME280;69812;42.632;23.440;2023-07-31T23:42:55;94827.41;;;15.89;84.11
68179;BME280;69812;42.632;23.440;2023-07-31T23:45:23;94812.31;;;15.78;84.33
68179;BME280;69812;42.632;23.440;2023-07-31T23:47:58;94817.94;;;15.81;84.13
68179;BME280;69812;42.632;23.440;2023-07-31T23:50:27;94811.69;;;15.68;84.32
68179;BME280;69812;42.632;23.440;2023-07-31T23:53:01;94813.16;;;15.70;84.20
68179;BME280;69812;42.632;23.440;2023-07-31T23:55:36;94810.44;;;15.64;84.36
68179;BME280;69812;42.632;23.440;2023-07-31T23:58:02;94807.28;;;15.53;84.79
